sensor_id;sensor_type;location;lat;lon;timestamp;temperature;humidity
34985;DHT22;21190;58.750;17.004;2022-12-10T00:02:08;-4.30;99.90
34985;DHT22;21190;58.750;17.004;2022-12-10T00:04:35;-4.30;99.90
34985;DHT22;21190;58.750;17.004;2022-12-10T00:07:02;-4.20;99.90
34985;DHT22;21190;58.750;17.004;2022-12-10T00:09:28;-4.20;99.90
34985;DHT22;21190;58.750;17.004;2022-12-10T00:11:55;-4.20;99.90
34985;DHT22;21190;58.750;17.004;2022-12-10T00:14:22;-4.20;99.90
34985;DHT22;21190;58.750;17.004;2022-12-10T00:16:49;-4.20;99.90
34985;DHT22;21190;58.750;17.004;2022-12-10T00:19:16;-4.20;99.90
34985;DHT22;21190;58.750;17.004;2022-12-10T00:21:43;-4.20;99.90
34985;DHT22;21190;58.750;17.004;2022-12-10T00:24:11;-4.30;99.90
34985;DHT22;21190;58.750;17.004;2022-12-10T00:26:38;-4.10;99.90
34985;DHT22;21190;58.750;17.004;2022-12-10T00:29:06;-4.10;99.90
34985;DHT22;21190;58.750;17.004;2022-12-10T00:31:34;-4.00;99.90
34985;DHT22;21190;58.750;17.004;2022-12-10T00:34:02;-3.90;99.90
34985;DHT22;21190;58.750;17.004;2022-12-10T00:36:31;-4.00;99.90
34985;DHT22;21190;58.750;17.004;2022-12-10T00:38:58;-3.90;99.90
34985;DHT22;21190;58.750;17.004;2022-12-10T00:41:25;-4.00;99.90
34985;DHT22;21190;58.750;17.004;2022-12-10T00:43:52;-4.00;99.90
34985;DHT22;21190;58.750;17.004;2022-12-10T00:46:19;-4.00;99.90
34985;DHT22;21190;58.750;17.004;2022-12-10T00:48:46;-4.10;99.90
34985;DHT22;21190;58.750;17.004;2022-12-10T00:51:15;-4.00;99.90
34985;DHT22;21190;58.750;17.004;2022-12-10T00:53:42;-4.10;99.90
34985;DHT22;21190;58.750;17.004;2022-12-10T00:56:10;-4.10;99.90
34985;DHT22;21190;58.750;17.004;2022-12-10T00:58:38;-4.10;99.90
34985;DHT22;21190;58.750;17.004;2022-12-10T01:04:12;-4.20;99.90
34985;DHT22;21190;58.750;17.004;2022-12-10T01:06:41;-4.30;99.90
34985;DHT22;21190;58.750;17.004;2022-12-10T01:09:09;-4.40;99.90
34985;DHT22;21190;58.750;17.004;2022-12-10T01:11:37;-4.20;99.90
34985;DHT22;21190;58.750;17.004;2022-12-10T01:14:05;-4.30;99.90
34985;DHT22;21190;58.750;17.004;2022-12-10T01:16:32;-4.30;99.90
34985;DHT22;21190;58.750;17.004;2022-12-10T01:18:59;-4.30;99.90
34985;DHT22;21190;58.750;17.004;2022-12-10T01:21:27;-4.30;99.90
34985;DHT22;21190;58.750;17.004;2022-12-10T01:23:55;-4.30;99.90
34985;DHT22;21190;58.750;17.004;2022-12-10T01:26:26;-4.30;99.90
34985;DHT22;21190;58.750;17.004;2022-12-10T01:28:53;-4.30;99.90
34985;DHT22;21190;58.750;17.004;2022-12-10T01:31:22;-4.30;99.90
34985;DHT22;21190;58.750;17.004;2022-12-10T01:33:49;-4.30;99.90
34985;DHT22;21190;58.750;17.004;2022-12-10T01:36:20;-4.30;99.90
34985;DHT22;21190;58.750;17.004;2022-12-10T01:38:47;-4.30;99.90
34985;DHT22;21190;58.750;17.004;2022-12-10T01:41:22;-4.40;99.90
34985;DHT22;21190;58.750;17.004;2022-12-10T01:46:16;-4.40;99.90
34985;DHT22;21190;58.750;17.004;2022-12-10T01:48:43;-4.40;99.90
34985;DHT22;21190;58.750;17.004;2022-12-10T01:51:10;-4.40;99.90
34985;DHT22;21190;58.750;17.004;2022-12-10T01:53:38;-4.30;99.90
34985;DHT22;21190;58.750;17.004;2022-12-10T01:56:04;-4.30;99.90
34985;DHT22;21190;58.750;17.004;2022-12-10T01:58:32;-4.20;99.90
34985;DHT22;21190;58.750;17.004;2022-12-10T02:01:02;-4.20;99.90
34985;DHT22;21190;58.750;17.004;2022-12-10T02:03:37;-4.20;99.90
34985;DHT22;21190;58.750;17.004;2022-12-10T02:06:10;-4.20;99.90
34985;DHT22;21190;58.750;17.004;2022-12-10T02:08:59;-4.20;99.90
34985;DHT22;21190;58.750;17.004;2022-12-10T02:11:29;-4.20;99.90
34985;DHT22;21190;58.750;17.004;2022-12-10T02:16:34;-4.10;99.90
34985;DHT22;21190;58.750;17.004;2022-12-10T02:19:09;-4.10;99.90
34985;DHT22;21190;58.750;17.004;2022-12-10T02:21:40;-4.10;99.90
34985;DHT22;21190;58.750;17.004;2022-12-10T02:24:09;-4.00;99.90
34985;DHT22;21190;58.750;17.004;2022-12-10T02:26:45;-3.90;99.90
34985;DHT22;21190;58.750;17.004;2022-12-10T02:29:17;-4.00;99.90
34985;DHT22;21190;58.750;17.004;2022-12-10T02:31:52;-3.90;99.90
34985;DHT22;21190;58.750;17.004;2022-12-10T02:34:20;-3.90;99.90
34985;DHT22;21190;58.750;17.004;2022-12-10T02:36:48;-4.00;99.90
34985;DHT22;21190;58.750;17.004;2022-12-10T02:39:18;-4.10;99.90
34985;DHT22;21190;58.750;17.004;2022-12-10T02:41:47;-4.10;99.90
34985;DHT22;21190;58.750;17.004;2022-12-10T02:44:16;-4.10;99.90
34985;DHT22;21190;58.750;17.004;2022-12-10T02:46:44;-4.10;99.90
34985;DHT22;21190;58.750;17.004;2022-12-10T02:49:12;-4.00;99.90
34985;DHT22;21190;58.750;17.004;2022-12-10T02:51:40;-4.10;99.90
34985;DHT22;21190;58.750;17.004;2022-12-10T02:54:33;-4.10;99.90
34985;DHT22;21190;58.750;17.004;2022-12-10T02:56:56;-4.00;99.90
34985;DHT22;21190;58.750;17.004;2022-12-10T03:04:22;-3.90;99.90
34985;DHT22;21190;58.750;17.004;2022-12-10T03:06:55;-3.90;99.90
34985;DHT22;21190;58.750;17.004;2022-12-10T03:09:26;-3.90;99.90
34985;DHT22;21190;58.750;17.004;2022-12-10T03:11:57;-3.90;99.90
34985;DHT22;21190;58.750;17.004;2022-12-10T03:14:27;-3.90;99.90
34985;DHT22;21190;58.750;17.004;2022-12-10T03:16:58;-3.80;99.90
34985;DHT22;21190;58.750;17.004;2022-12-10T03:19:33;-3.90;99.90
34985;DHT22;21190;58.750;17.004;2022-12-10T03:22:03;-3.90;99.90
34985;DHT22;21190;58.750;17.004;2022-12-10T03:24:32;-3.90;99.90
34985;DHT22;21190;58.750;17.004;2022-12-10T03:26:59;-3.90;99.90
34985;DHT22;21190;58.750;17.004;2022-12-10T03:32:29;-3.80;99.90
34985;DHT22;21190;58.750;17.004;2022-12-10T03:34:56;-3.80;99.90
34985;DHT22;21190;58.750;17.004;2022-12-10T03:37:24;-3.80;99.90
34985;DHT22;21190;58.750;17.004;2022-12-10T03:39:52;-3.90;99.90
34985;DHT22;21190;58.750;17.004;2022-12-10T03:42:19;-3.90;99.90
34985;DHT22;21190;58.750;17.004;2022-12-10T03:44:48;-3.80;99.90
34985;DHT22;21190;58.750;17.004;2022-12-10T03:47:15;-3.90;99.90
34985;DHT22;21190;58.750;17.004;2022-12-10T03:49:43;-4.00;99.90
34985;DHT22;21190;58.750;17.004;2022-12-10T03:52:10;-3.90;99.90
34985;DHT22;21190;58.750;17.004;2022-12-10T03:54:37;-4.00;99.90
34985;DHT22;21190;58.750;17.004;2022-12-10T03:57:04;-4.00;99.90
34985;DHT22;21190;58.750;17.004;2022-12-10T03:59:31;-4.00;99.90
34985;DHT22;21190;58.750;17.004;2022-12-10T04:01:58;-4.20;99.90
34985;DHT22;21190;58.750;17.004;2022-12-10T04:04:25;-4.20;99.90
34985;DHT22;21190;58.750;17.004;2022-12-10T04:06:52;-4.20;99.90
34985;DHT22;21190;58.750;17.004;2022-12-10T04:09:18;-4.20;99.90
34985;DHT22;21190;58.750;17.004;2022-12-10T04:11:45;-4.20;99.90
34985;DHT22;21190;58.750;17.004;2022-12-10T04:14:13;-4.20;99.90
34985;DHT22;21190;58.750;17.004;2022-12-10T04:16:59;-4.20;99.90
34985;DHT22;21190;58.750;17.004;2022-12-10T04:19:26;-4.10;99.90
34985;DHT22;21190;58.750;17.004;2022-12-10T04:21:53;-4.10;99.90
34985;DHT22;21190;58.750;17.004;2022-12-10T04:24:39;-4.10;99.90
34985;DHT22;21190;58.750;17.004;2022-12-10T04:27:25;-4.10;99.90
34985;DHT22;21190;58.750;17.004;2022-12-10T04:29:53;-4.10;99.90
34985;DHT22;21190;58.750;17.004;2022-12-10T04:32:20;-4.00;99.90
34985;DHT22;21190;58.750;17.004;2022-12-10T04:34:47;-4.10;99.90
34985;DHT22;21190;58.750;17.004;2022-12-10T04:37:16;-4.10;99.90
34985;DHT22;21190;58.750;17.004;2022-12-10T04:39:44;-4.30;99.90
34985;DHT22;21190;58.750;17.004;2022-12-10T04:42:11;-4.20;99.90
34985;DHT22;21190;58.750;17.004;2022-12-10T04:44:38;-4.10;99.90
34985;DHT22;21190;58.750;17.004;2022-12-10T04:47:06;-4.00;99.90
34985;DHT22;21190;58.750;17.004;2022-12-10T04:49:34;-4.00;99.90
34985;DHT22;21190;58.750;17.004;2022-12-10T04:52:01;-4.00;99.90
34985;DHT22;21190;58.750;17.004;2022-12-10T04:54:29;-4.00;99.90
34985;DHT22;21190;58.750;17.004;2022-12-10T04:57:04;-3.90;99.90
34985;DHT22;21190;58.750;17.004;2022-12-10T04:59:31;-3.90;99.90
34985;DHT22;21190;58.750;17.004;2022-12-10T05:01:58;-3.90;99.90
34985;DHT22;21190;58.750;17.004;2022-12-10T05:04:25;-3.90;99.90
34985;DHT22;21190;58.750;17.004;2022-12-10T05:06:52;-3.80;99.90
34985;DHT22;21190;58.750;17.004;2022-12-10T05:09:18;-3.80;99.90
34985;DHT22;21190;58.750;17.004;2022-12-10T05:11:45;-3.80;99.90
34985;DHT22;21190;58.750;17.004;2022-12-10T05:14:13;-3.80;99.90
34985;DHT22;21190;58.750;17.004;2022-12-10T05:16:40;-3.90;99.90
34985;DHT22;21190;58.750;17.004;2022-12-10T05:19:08;-3.80;99.90
34985;DHT22;21190;58.750;17.004;2022-12-10T05:21:35;-3.60;99.90
34985;DHT22;21190;58.750;17.004;2022-12-10T05:24:20;-3.60;99.90
34985;DHT22;21190;58.750;17.004;2022-12-10T05:26:47;-3.60;99.90
34985;DHT22;21190;58.750;17.004;2022-12-10T05:29:18;-3.70;99.90
34985;DHT22;21190;58.750;17.004;2022-12-10T05:31:45;-3.80;99.90
34985;DHT22;21190;58.750;17.004;2022-12-10T05:34:12;-3.80;99.90
34985;DHT22;21190;58.750;17.004;2022-12-10T05:36:39;-3.80;99.90
34985;DHT22;21190;58.750;17.004;2022-12-10T05:39:06;-3.80;99.90
34985;DHT22;21190;58.750;17.004;2022-12-10T05:41:37;-3.80;99.90
34985;DHT22;21190;58.750;17.004;2022-12-10T05:44:04;-3.80;99.90
34985;DHT22;21190;58.750;17.004;2022-12-10T05:46:32;-3.70;99.90
34985;DHT22;21190;58.750;17.004;2022-12-10T05:49:00;-3.70;99.90
34985;DHT22;21190;58.750;17.004;2022-12-10T05:51:28;-3.70;99.90
34985;DHT22;21190;58.750;17.004;2022-12-10T05:53:55;-3.80;99.90
34985;DHT22;21190;58.750;17.004;2022-12-10T05:56:23;-3.70;99.90
34985;DHT22;21190;58.750;17.004;2022-12-10T05:58:52;-3.80;99.90
34985;DHT22;21190;58.750;17.004;2022-12-10T06:01:20;-3.80;99.90
34985;DHT22;21190;58.750;17.004;2022-12-10T06:03:48;-3.80;99.90
34985;DHT22;21190;58.750;17.004;2022-12-10T06:06:20;-3.90;99.90
34985;DHT22;21190;58.750;17.004;2022-12-10T06:08:46;-3.80;99.90
34985;DHT22;21190;58.750;17.004;2022-12-10T06:11:13;-3.90;99.90
34985;DHT22;21190;58.750;17.004;2022-12-10T06:13:40;-3.80;99.90
34985;DHT22;21190;58.750;17.004;2022-12-10T06:16:08;-3.90;99.90
34985;DHT22;21190;58.750;17.004;2022-12-10T06:18:35;-3.80;99.90
34985;DHT22;21190;58.750;17.004;2022-12-10T06:21:03;-3.90;99.90
34985;DHT22;21190;58.750;17.004;2022-12-10T06:23:30;-3.90;99.90
34985;DHT22;21190;58.750;17.004;2022-12-10T06:25:57;-3.90;99.90
34985;DHT22;21190;58.750;17.004;2022-12-10T06:28:24;-3.80;99.90
34985;DHT22;21190;58.750;17.004;2022-12-10T06:30:51;-3.80;99.90
34985;DHT22;21190;58.750;17.004;2022-12-10T06:33:18;-3.80;99.90
34985;DHT22;21190;58.750;17.004;2022-12-10T06:35:44;-3.80;99.90
34985;DHT22;21190;58.750;17.004;2022-12-10T06:38:11;-3.90;99.90
34985;DHT22;21190;58.750;17.004;2022-12-10T06:40:39;-3.90;99.90
34985;DHT22;21190;58.750;17.004;2022-12-10T06:43:06;-4.00;99.90
34985;DHT22;21190;58.750;17.004;2022-12-10T06:45:33;-4.00;99.90
34985;DHT22;21190;58.750;17.004;2022-12-10T06:48:00;-4.00;99.90
34985;DHT22;21190;58.750;17.004;2022-12-10T06:50:27;-3.90;99.90
34985;DHT22;21190;58.750;17.004;2022-12-10T06:52:54;-3.90;99.90
34985;DHT22;21190;58.750;17.004;2022-12-10T06:55:21;-3.90;99.90
34985;DHT22;21190;58.750;17.004;2022-12-10T06:57:51;-3.90;99.90
34985;DHT22;21190;58.750;17.004;2022-12-10T07:00:19;-3.70;99.90
34985;DHT22;21190;58.750;17.004;2022-12-10T07:02:47;-3.80;99.90
34985;DHT22;21190;58.750;17.004;2022-12-10T07:05:14;-3.70;99.90
34985;DHT22;21190;58.750;17.004;2022-12-10T07:07:41;-3.70;99.90
34985;DHT22;21190;58.750;17.004;2022-12-10T07:10:09;-3.70;99.90
34985;DHT22;21190;58.750;17.004;2022-12-10T07:12:37;-3.80;99.90
34985;DHT22;21190;58.750;17.004;2022-12-10T07:15:04;-3.90;99.90
34985;DHT22;21190;58.750;17.004;2022-12-10T07:17:31;-4.00;99.90
34985;DHT22;21190;58.750;17.004;2022-12-10T07:19:58;-4.00;99.90
34985;DHT22;21190;58.750;17.004;2022-12-10T07:22:25;-3.90;99.90
34985;DHT22;21190;58.750;17.004;2022-12-10T07:24:51;-4.00;99.90
34985;DHT22;21190;58.750;17.004;2022-12-10T07:27:18;-4.00;99.90
34985;DHT22;21190;58.750;17.004;2022-12-10T07:29:45;-4.00;99.90
34985;DHT22;21190;58.750;17.004;2022-12-10T07:32:12;-4.00;99.90
34985;DHT22;21190;58.750;17.004;2022-12-10T07:34:39;-4.00;99.90
34985;DHT22;21190;58.750;17.004;2022-12-10T07:37:06;-3.90;99.90
34985;DHT22;21190;58.750;17.004;2022-12-10T07:39:33;-3.90;99.90
34985;DHT22;21190;58.750;17.004;2022-12-10T07:42:00;-3.80;99.90
34985;DHT22;21190;58.750;17.004;2022-12-10T07:44:27;-3.80;99.90
34985;DHT22;21190;58.750;17.004;2022-12-10T07:46:54;-3.80;99.90
34985;DHT22;21190;58.750;17.004;2022-12-10T07:49:22;-3.80;99.90
34985;DHT22;21190;58.750;17.004;2022-12-10T07:51:49;-3.90;99.90
34985;DHT22;21190;58.750;17.004;2022-12-10T07:54:16;-3.80;99.90
34985;DHT22;21190;58.750;17.004;2022-12-10T07:56:44;-3.80;99.90
34985;DHT22;21190;58.750;17.004;2022-12-10T07:59:11;-3.80;99.90
34985;DHT22;21190;58.750;17.004;2022-12-10T08:01:38;-3.80;99.90
34985;DHT22;21190;58.750;17.004;2022-12-10T08:04:05;-3.80;99.90
34985;DHT22;21190;58.750;17.004;2022-12-10T08:06:32;-3.80;99.90
34985;DHT22;21190;58.750;17.004;2022-12-10T08:08:59;-3.70;99.90
34985;DHT22;21190;58.750;17.004;2022-12-10T08:11:26;-3.80;99.90
34985;DHT22;21190;58.750;17.004;2022-12-10T08:13:53;-3.70;99.90
34985;DHT22;21190;58.750;17.004;2022-12-10T08:16:24;-3.70;99.90
34985;DHT22;21190;58.750;17.004;2022-12-10T08:18:52;-3.70;99.90
34985;DHT22;21190;58.750;17.004;2022-12-10T08:21:20;-3.70;99.90
34985;DHT22;21190;58.750;17.004;2022-12-10T08:23:48;-3.70;99.90
34985;DHT22;21190;58.750;17.004;2022-12-10T08:26:19;-3.60;99.90
34985;DHT22;21190;58.750;17.004;2022-12-10T08:28:47;-3.60;99.90
34985;DHT22;21190;58.750;17.004;2022-12-10T08:31:17;-3.80;99.90
34985;DHT22;21190;58.750;17.004;2022-12-10T08:33:44;-3.70;99.90
34985;DHT22;21190;58.750;17.004;2022-12-10T08:36:11;-3.70;99.90
34985;DHT22;21190;58.750;17.004;2022-12-10T08:38:39;-3.70;99.90
34985;DHT22;21190;58.750;17.004;2022-12-10T08:41:07;-3.70;99.90
34985;DHT22;21190;58.750;17.004;2022-12-10T08:43:35;-3.70;99.90
34985;DHT22;21190;58.750;17.004;2022-12-10T08:46:02;-3.70;99.90
34985;DHT22;21190;58.750;17.004;2022-12-10T08:48:29;-3.60;99.90
34985;DHT22;21190;58.750;17.004;2022-12-10T08:50:56;-3.70;99.90
34985;DHT22;21190;58.750;17.004;2022-12-10T08:53:23;-3.60;99.90
34985;DHT22;21190;58.750;17.004;2022-12-10T08:55:51;-3.60;99.90
34985;DHT22;21190;58.750;17.004;2022-12-10T08:58:18;-3.50;99.90
34985;DHT22;21190;58.750;17.004;2022-12-10T09:00:45;-3.60;99.90
34985;DHT22;21190;58.750;17.004;2022-12-10T09:03:13;-3.50;99.90
34985;DHT22;21190;58.750;17.004;2022-12-10T09:05:40;-3.60;99.90
34985;DHT22;21190;58.750;17.004;2022-12-10T09:08:07;-3.50;99.90
34985;DHT22;21190;58.750;17.004;2022-12-10T09:10:37;-3.50;99.90
34985;DHT22;21190;58.750;17.004;2022-12-10T09:13:04;-3.50;99.90
34985;DHT22;21190;58.750;17.004;2022-12-10T09:15:32;-3.50;99.90
34985;DHT22;21190;58.750;17.004;2022-12-10T09:17:59;-3.50;99.90
34985;DHT22;21190;58.750;17.004;2022-12-10T09:20:26;-3.50;99.90
34985;DHT22;21190;58.750;17.004;2022-12-10T09:22:53;-3.50;99.90
34985;DHT22;21190;58.750;17.004;2022-12-10T09:25:20;-3.50;99.90
34985;DHT22;21190;58.750;17.004;2022-12-10T09:27:48;-3.40;99.90
34985;DHT22;21190;58.750;17.004;2022-12-10T09:30:15;-3.40;99.90
34985;DHT22;21190;58.750;17.004;2022-12-10T09:32:41;-3.40;99.90
34985;DHT22;21190;58.750;17.004;2022-12-10T09:35:08;-3.50;99.90
34985;DHT22;21190;58.750;17.004;2022-12-10T09:37:35;-3.50;99.90
34985;DHT22;21190;58.750;17.004;2022-12-10T09:40:02;-3.40;99.90
34985;DHT22;21190;58.750;17.004;2022-12-10T09:42:34;-3.50;99.90
34985;DHT22;21190;58.750;17.004;2022-12-10T09:46:06;-3.50;99.90
34985;DHT22;21190;58.750;17.004;2022-12-10T09:53:20;-3.50;99.90
34985;DHT22;21190;58.750;17.004;2022-12-10T09:55:48;-3.40;99.90
34985;DHT22;21190;58.750;17.004;2022-12-10T09:58:19;-3.50;99.90
34985;DHT22;21190;58.750;17.004;2022-12-10T10:00:59;-3.50;99.90
34985;DHT22;21190;58.750;17.004;2022-12-10T10:03:26;-3.70;99.90
34985;DHT22;21190;58.750;17.004;2022-12-10T10:05:55;-3.70;99.90
34985;DHT22;21190;58.750;17.004;2022-12-10T10:08:31;-3.80;99.90
34985;DHT22;21190;58.750;17.004;2022-12-10T10:11:02;-3.70;99.90
34985;DHT22;21190;58.750;17.004;2022-12-10T10:18:41;-3.70;99.90
34985;DHT22;21190;58.750;17.004;2022-12-10T10:21:18;-3.80;99.90
34985;DHT22;21190;58.750;17.004;2022-12-10T10:23:46;-3.80;99.90
34985;DHT22;21190;58.750;17.004;2022-12-10T10:26:13;-3.70;99.90
34985;DHT22;21190;58.750;17.004;2022-12-10T10:28:41;-3.80;99.90
34985;DHT22;21190;58.750;17.004;2022-12-10T10:31:18;-3.60;99.90
34985;DHT22;21190;58.750;17.004;2022-12-10T10:33:52;-3.60;99.90
34985;DHT22;21190;58.750;17.004;2022-12-10T10:36:24;-3.80;99.90
34985;DHT22;21190;58.750;17.004;2022-12-10T10:38:51;-3.70;99.90
34985;DHT22;21190;58.750;17.004;2022-12-10T10:41:18;-3.70;99.90
34985;DHT22;21190;58.750;17.004;2022-12-10T10:43:45;-3.70;99.90
34985;DHT22;21190;58.750;17.004;2022-12-10T10:46:23;-3.80;99.90
34985;DHT22;21190;58.750;17.004;2022-12-10T10:48:50;-3.80;99.90
34985;DHT22;21190;58.750;17.004;2022-12-10T10:51:18;-3.80;99.90
34985;DHT22;21190;58.750;17.004;2022-12-10T10:53:53;-3.70;99.90
34985;DHT22;21190;58.750;17.004;2022-12-10T11:01:25;-3.60;99.90
34985;DHT22;21190;58.750;17.004;2022-12-10T11:03:57;-3.50;99.90
34985;DHT22;21190;58.750;17.004;2022-12-10T11:06:25;-3.50;99.90
34985;DHT22;21190;58.750;17.004;2022-12-10T11:08:54;-3.50;99.90
34985;DHT22;21190;58.750;17.004;2022-12-10T11:11:34;-3.60;99.90
34985;DHT22;21190;58.750;17.004;2022-12-10T11:14:22;-3.60;99.90
34985;DHT22;21190;58.750;17.004;2022-12-10T11:16:50;-3.60;99.90
34985;DHT22;21190;58.750;17.004;2022-12-10T11:19:21;-3.60;99.90
34985;DHT22;21190;58.750;17.004;2022-12-10T11:21:48;-3.60;99.90
34985;DHT22;21190;58.750;17.004;2022-12-10T11:24:16;-3.60;99.90
34985;DHT22;21190;58.750;17.004;2022-12-10T11:32:12;-3.70;99.90
34985;DHT22;21190;58.750;17.004;2022-12-10T11:34:54;-3.60;99.90
34985;DHT22;21190;58.750;17.004;2022-12-10T11:45:20;-3.60;99.90
34985;DHT22;21190;58.750;17.004;2022-12-10T11:55:36;-3.70;99.90
34985;DHT22;21190;58.750;17.004;2022-12-10T11:58:16;-3.60;99.90
34985;DHT22;21190;58.750;17.004;2022-12-10T12:00:52;-3.60;99.90
34985;DHT22;21190;58.750;17.004;2022-12-10T12:03:38;-3.70;99.90
34985;DHT22;21190;58.750;17.004;2022-12-10T12:06:16;-3.60;99.90
34985;DHT22;21190;58.750;17.004;2022-12-10T12:14:14;-3.60;99.90
34985;DHT22;21190;58.750;17.004;2022-12-10T12:16:44;-3.60;99.90
34985;DHT22;21190;58.750;17.004;2022-12-10T12:19:15;-3.50;99.90
34985;DHT22;21190;58.750;17.004;2022-12-10T12:21:44;-3.70;99.90
34985;DHT22;21190;58.750;17.004;2022-12-10T12:24:34;-3.70;99.90
34985;DHT22;21190;58.750;17.004;2022-12-10T12:27:06;-3.80;99.90
34985;DHT22;21190;58.750;17.004;2022-12-10T12:29:42;-3.80;99.90
34985;DHT22;21190;58.750;17.004;2022-12-10T12:32:17;-3.70;99.90
34985;DHT22;21190;58.750;17.004;2022-12-10T12:35:01;-3.70;99.90
34985;DHT22;21190;58.750;17.004;2022-12-10T12:37:36;-3.70;99.90
34985;DHT22;21190;58.750;17.004;2022-12-10T12:40:15;-3.70;99.90
34985;DHT22;21190;58.750;17.004;2022-12-10T12:42:47;-3.80;99.90
34985;DHT22;21190;58.750;17.004;2022-12-10T12:45:26;-3.80;99.90
34985;DHT22;21190;58.750;17.004;2022-12-10T12:53:26;-4.10;99.90
34985;DHT22;21190;58.750;17.004;2022-12-10T12:56:20;-4.00;99.90
34985;DHT22;21190;58.750;17.004;2022-12-10T13:01:37;-3.90;99.90
34985;DHT22;21190;58.750;17.004;2022-12-10T13:04:06;-3.90;99.90
34985;DHT22;21190;58.750;17.004;2022-12-10T13:06:34;-3.90;99.90
34985;DHT22;21190;58.750;17.004;2022-12-10T13:11:41;-3.90;99.90
34985;DHT22;21190;58.750;17.004;2022-12-10T13:32:24;-4.10;99.90
34985;DHT22;21190;58.750;17.004;2022-12-10T13:37:57;-4.00;99.90
34985;DHT22;21190;58.750;17.004;2022-12-10T13:48:58;-3.90;99.90
34985;DHT22;21190;58.750;17.004;2022-12-10T13:56:39;-4.00;99.90
34985;DHT22;21190;58.750;17.004;2022-12-10T14:07:02;-4.10;99.90
34985;DHT22;21190;58.750;17.004;2022-12-10T14:09:41;-4.20;99.90
34985;DHT22;21190;58.750;17.004;2022-12-10T14:12:17;-4.10;99.90
34985;DHT22;21190;58.750;17.004;2022-12-10T14:14:58;-4.20;99.90
34985;DHT22;21190;58.750;17.004;2022-12-10T14:17:31;-4.10;99.90
34985;DHT22;21190;58.750;17.004;2022-12-10T14:19:58;-4.20;99.90
34985;DHT22;21190;58.750;17.004;2022-12-10T14:24:58;-4.10;99.90
34985;DHT22;21190;58.750;17.004;2022-12-10T14:27:26;-4.10;99.90
34985;DHT22;21190;58.750;17.004;2022-12-10T14:30:01;-4.20;99.90
34985;DHT22;21190;58.750;17.004;2022-12-10T14:32:37;-4.20;99.90
34985;DHT22;21190;58.750;17.004;2022-12-10T14:35:06;-4.20;99.90
34985;DHT22;21190;58.750;17.004;2022-12-10T14:37:34;-4.20;99.90
34985;DHT22;21190;58.750;17.004;2022-12-10T14:40:03;-4.30;99.90
34985;DHT22;21190;58.750;17.004;2022-12-10T14:42:31;-4.30;99.90
34985;DHT22;21190;58.750;17.004;2022-12-10T14:45:03;-4.40;99.90
34985;DHT22;21190;58.750;17.004;2022-12-10T14:47:37;-4.40;99.90
34985;DHT22;21190;58.750;17.004;2022-12-10T14:50:13;-4.40;99.90
34985;DHT22;21190;58.750;17.004;2022-12-10T14:52:41;-4.30;99.90
34985;DHT22;21190;58.750;17.004;2022-12-10T14:55:15;-4.30;99.90
34985;DHT22;21190;58.750;17.004;2022-12-10T14:57:44;-4.30;99.90
34985;DHT22;21190;58.750;17.004;2022-12-10T15:00:16;-4.30;99.90
34985;DHT22;21190;58.750;17.004;2022-12-10T15:02:45;-4.20;99.90
34985;DHT22;21190;58.750;17.004;2022-12-10T15:05:17;-4.30;99.90
34985;DHT22;21190;58.750;17.004;2022-12-10T15:07:52;-4.30;99.90
34985;DHT22;21190;58.750;17.004;2022-12-10T15:10:26;-4.30;99.90
34985;DHT22;21190;58.750;17.004;2022-12-10T15:12:55;-4.30;99.90
34985;DHT22;21190;58.750;17.004;2022-12-10T15:18:00;-4.30;99.90
34985;DHT22;21190;58.750;17.004;2022-12-10T15:20:31;-4.40;99.90
34985;DHT22;21190;58.750;17.004;2022-12-10T15:23:11;-4.30;99.90
34985;DHT22;21190;58.750;17.004;2022-12-10T15:28:22;-4.30;99.90
34985;DHT22;21190;58.750;17.004;2022-12-10T15:30:49;-4.30;99.90
34985;DHT22;21190;58.750;17.004;2022-12-10T15:33:33;-4.30;99.90
34985;DHT22;21190;58.750;17.004;2022-12-10T15:36:01;-4.20;99.90
34985;DHT22;21190;58.750;17.004;2022-12-10T15:38:29;-4.20;99.90
34985;DHT22;21190;58.750;17.004;2022-12-10T15:40:57;-4.30;99.90
34985;DHT22;21190;58.750;17.004;2022-12-10T15:43:26;-4.30;99.90
34985;DHT22;21190;58.750;17.004;2022-12-10T15:45:56;-4.30;99.90
34985;DHT22;21190;58.750;17.004;2022-12-10T15:48:24;-4.30;99.90
34985;DHT22;21190;58.750;17.004;2022-12-10T15:50:52;-4.30;99.90
34985;DHT22;21190;58.750;17.004;2022-12-10T15:53:21;-4.30;99.90
34985;DHT22;21190;58.750;17.004;2022-12-10T15:55:52;-4.30;99.90
34985;DHT22;21190;58.750;17.004;2022-12-10T15:58:19;-4.20;99.90
34985;DHT22;21190;58.750;17.004;2022-12-10T16:00:46;-4.30;99.90
34985;DHT22;21190;58.750;17.004;2022-12-10T16:03:15;-4.30;99.90
34985;DHT22;21190;58.750;17.004;2022-12-10T16:05:42;-4.30;99.90
34985;DHT22;21190;58.750;17.004;2022-12-10T16:10:39;-4.30;99.90
34985;DHT22;21190;58.750;17.004;2022-12-10T16:13:07;-4.30;99.90
34985;DHT22;21190;58.750;17.004;2022-12-10T16:15:48;-4.30;99.90
34985;DHT22;21190;58.750;17.004;2022-12-10T16:18:16;-4.30;99.90
34985;DHT22;21190;58.750;17.004;2022-12-10T16:20:43;-4.20;99.90
34985;DHT22;21190;58.750;17.004;2022-12-10T16:23:10;-4.20;99.90
34985;DHT22;21190;58.750;17.004;2022-12-10T16:25:37;-4.20;99.90
34985;DHT22;21190;58.750;17.004;2022-12-10T16:28:10;-4.20;99.90
34985;DHT22;21190;58.750;17.004;2022-12-10T16:30:39;-4.20;99.90
34985;DHT22;21190;58.750;17.004;2022-12-10T16:33:14;-4.10;99.90
34985;DHT22;21190;58.750;17.004;2022-12-10T16:35:41;-4.10;99.90
34985;DHT22;21190;58.750;17.004;2022-12-10T16:38:08;-4.10;99.90
34985;DHT22;21190;58.750;17.004;2022-12-10T16:40:37;-4.10;99.90
34985;DHT22;21190;58.750;17.004;2022-12-10T16:43:05;-4.10;99.90
34985;DHT22;21190;58.750;17.004;2022-12-10T16:45:36;-4.20;99.90
34985;DHT22;21190;58.750;17.004;2022-12-10T16:48:04;-4.20;99.90
34985;DHT22;21190;58.750;17.004;2022-12-10T16:50:32;-4.20;99.90
34985;DHT22;21190;58.750;17.004;2022-12-10T16:53:01;-4.20;99.90
34985;DHT22;21190;58.750;17.004;2022-12-10T16:55:28;-4.20;99.90
34985;DHT22;21190;58.750;17.004;2022-12-10T16:57:55;-4.20;99.90
34985;DHT22;21190;58.750;17.004;2022-12-10T17:00:23;-4.30;99.90
34985;DHT22;21190;58.750;17.004;2022-12-10T17:02:50;-4.30;99.90
34985;DHT22;21190;58.750;17.004;2022-12-10T17:05:22;-4.30;99.90
34985;DHT22;21190;58.750;17.004;2022-12-10T17:07:50;-4.20;99.90
34985;DHT22;21190;58.750;17.004;2022-12-10T17:10:17;-4.20;99.90
34985;DHT22;21190;58.750;17.004;2022-12-10T17:13:04;-4.20;99.90
34985;DHT22;21190;58.750;17.004;2022-12-10T17:15:31;-4.20;99.90
34985;DHT22;21190;58.750;17.004;2022-12-10T17:17:58;-4.10;99.90
34985;DHT22;21190;58.750;17.004;2022-12-10T17:20:28;-4.20;99.90
34985;DHT22;21190;58.750;17.004;2022-12-10T17:22:55;-4.20;99.90
34985;DHT22;21190;58.750;17.004;2022-12-10T17:25:23;-4.20;99.90
34985;DHT22;21190;58.750;17.004;2022-12-10T17:27:49;-4.20;99.90
34985;DHT22;21190;58.750;17.004;2022-12-10T17:30:16;-4.20;99.90
34985;DHT22;21190;58.750;17.004;2022-12-10T17:32:43;-4.20;99.90